Terminal Aerodrome Forecast
Issued by NWS

Current Version | Previous Version | Text Only | Print | Product List | Glossary Off
Versions: 1 2 3 4 5 6 7 8 9 10 11 12 13 14 15 16 17 18 19 20 21 22 23 24 25 26 27 28 29 30 31 32 33 34

000
FTUS41 KRNK 181125
TAFLWB
TAF
KLWB 181125Z 1812/1912 29003KT P6SM SCT025 BKN150
     FM181500 26006KT P6SM BKN120
     FM190600 31002KT P6SM SCT020 BKN050
     FM190900 VRB03KT P6SM BKN015=

USA.gov is the U.S. government's official web portal to all federal, state and local government web resources and services.